Time;durP1;ratioP1;P1;durP2;ratioP2;P2;SDS_P1;SDS_P2;PMS_P1;PMS_P2;Temp;Humidity;BMP_temperature;BMP_pressure;BME280_temperature;BME280_humidity;BME280_pressure;Samples;Min_cycle;Max_cycle;Signal;HPM_P1;HPM_P2
2023/03/29 00:01:29;;;;;;;2.23;1.53;;;;;7.20;101127.00;;;;10500118;28;20197;-78
2023/03/29 00:06:37;;;;;;;2.43;1.77;;;;;7.20;101119.00;;;;10477423;28;20629;-77
2023/03/29 00:11:40;;;;;;;2.90;1.40;;;;;7.20;101110.00;;;;10479290;28;20201;-78
2023/03/29 00:16:43;;;;;;;4.23;1.87;;;;;7.20;101107.00;;;;10530861;28;20697;-77
2023/03/29 00:21:46;;;;;;;2.37;1.67;;;;;7.20;101095.00;;;;10514003;28;20737;-77
2023/03/29 00:26:48;;;;;;;3.97;2.07;;;;;7.20;101083.00;;;;10491471;28;20283;-77
2023/03/29 00:31:52;;;;;;;5.70;2.83;;;;;7.30;101080.00;;;;10490399;28;20235;-78
2023/03/29 00:36:56;;;;;;;4.60;1.73;;;;;7.30;101075.00;;;;10489197;28;20437;-78
2023/03/29 00:41:58;;;;;;;2.93;1.90;;;;;7.30;101073.00;;;;10516767;27;20304;-78
2023/03/29 00:47:00;;;;;;;4.93;2.00;;;;;7.30;101066.00;;;;10509765;28;20659;-77
2023/03/29 00:52:03;;;;;;;4.13;2.20;;;;;7.40;101063.00;;;;10532884;28;20283;-77
2023/03/29 00:57:06;;;;;;;6.00;2.50;;;;;7.40;101064.00;;;;10474524;28;20229;-77
2023/03/29 01:02:10;;;;;;;4.50;2.43;;;;;7.50;101059.00;;;;10491418;28;20954;-77
2023/03/29 01:07:24;;;;;;;5.07;2.53;;;;;7.60;101049.00;;;;10514810;28;20203;-77
2023/03/29 01:12:36;;;;;;;8.03;2.67;;;;;7.70;101034.00;;;;10519296;27;20199;-77
2023/03/29 01:17:42;;;;;;;5.10;2.40;;;;;7.80;101043.00;;;;10554636;27;20215;-77
2023/03/29 01:23:26;;;;;;;6.00;2.70;;;;;7.80;101042.00;;;;10506749;28;20192;-78
2023/03/29 01:28:52;;;;;;;6.17;2.67;;;;;7.80;101040.00;;;;10480747;28;20693;-77
2023/03/29 01:34:18;;;;;;;6.00;2.63;;;;;7.80;101027.00;;;;10519209;27;20670;-77
2023/03/29 01:39:20;;;;;;;3.87;2.30;;;;;7.80;101016.00;;;;10482922;28;20278;-78
2023/03/29 01:44:34;;;;;;;3.87;2.20;;;;;7.90;101006.00;;;;10544622;27;20311;-78
2023/03/29 01:49:45;;;;;;;7.00;3.00;;;;;7.90;101001.00;;;;10512543;28;20250;-77
2023/03/29 01:54:54;;;;;;;4.73;2.50;;;;;7.90;101000.00;;;;10545658;27;20222;-77
2023/03/29 01:59:57;;;;;;;8.03;3.23;;;;;7.90;100993.00;;;;10578724;27;20211;-77
2023/03/29 02:05:00;;;;;;;6.07;2.33;;;;;7.90;100985.00;;;;10521533;28;20196;-77
2023/03/29 02:10:04;;;;;;;10.50;3.20;;;;;7.90;100973.00;;;;10505880;28;20199;-77
2023/03/29 02:15:12;;;;;;;3.77;2.33;;;;;7.90;100966.00;;;;10506441;28;20236;-77
2023/03/29 02:20:23;;;;;;;4.53;2.50;;;;;7.80;100970.00;;;;10538154;28;20223;-77
2023/03/29 02:25:25;;;;;;;6.90;2.43;;;;;7.80;100977.00;;;;10520624;28;20200;-77
2023/03/29 02:30:34;;;;;;;6.63;3.13;;;;;7.90;100980.00;;;;10530463;28;20203;-77
2023/03/29 02:35:44;;;;;;;4.67;2.80;;;;;8.00;100976.00;;;;10497010;28;20250;-77
2023/03/29 02:40:46;;;;;;;5.63;2.97;;;;;8.10;100969.00;;;;10479692;28;20288;-77
2023/03/29 02:45:50;;;;;;;8.83;3.20;;;;;8.10;100972.00;;;;10537525;27;20192;-77
2023/03/29 02:50:57;;;;;;;5.67;2.77;;;;;8.20;100970.00;;;;10532778;28;20258;-77
2023/03/29 02:56:01;;;;;;;5.93;3.03;;;;;8.20;100968.00;;;;10511140;28;20756;-77
2023/03/29 03:01:05;;;;;;;8.23;3.27;;;;;8.30;100976.00;;;;10536449;28;20207;-77
2023/03/29 03:06:07;;;;;;;7.03;3.23;;;;;8.30;100965.00;;;;10553349;28;20245;-77
2023/03/29 03:11:09;;;;;;;6.83;3.27;;;;;8.30;100970.00;;;;10549357;28;20243;-77
2023/03/29 03:16:12;;;;;;;6.17;3.53;;;;;8.40;100964.00;;;;10537267;28;20234;-77
2023/03/29 03:21:18;;;;;;;6.80;3.10;;;;;8.40;100957.00;;;;10503575;27;20825;-76
2023/03/29 03:26:23;;;;;;;6.90;3.43;;;;;8.40;100945.00;;;;10501732;28;20846;-77
2023/03/29 03:31:27;;;;;;;10.13;4.17;;;;;8.50;100943.00;;;;10476698;28;20280;-77
2023/03/29 03:36:49;;;;;;;7.23;3.40;;;;;8.50;100941.00;;;;10476091;28;20686;-77
2023/03/29 03:41:51;;;;;;;5.73;3.20;;;;;8.60;100942.00;;;;10526485;28;20192;-77
2023/03/29 03:46:53;;;;;;;5.90;2.90;;;;;8.60;100933.00;;;;10544217;28;20199;-77
2023/03/29 03:51:55;;;;;;;7.00;3.43;;;;;8.60;100941.00;;;;10548857;27;20190;-77
2023/03/29 03:56:58;;;;;;;7.23;2.87;;;;;8.60;100941.00;;;;10492079;28;20248;-77
2023/03/29 04:02:29;;;;;;;6.33;3.33;;;;;8.60;100936.00;;;;10501406;28;20193;-77
2023/03/29 04:07:33;;;;;;;6.20;3.33;;;;;8.50;100937.00;;;;10495233;28;20675;-77
2023/03/29 04:12:58;;;;;;;8.13;4.07;;;;;8.30;100935.00;;;;10489939;27;20654;-77
2023/03/29 04:18:00;;;;;;;6.20;3.80;;;;;8.20;100936.00;;;;10554970;27;20224;-77
2023/03/29 04:23:09;;;;;;;6.43;3.83;;;;;8.00;100931.00;;;;10511650;28;20188;-77
2023/03/29 04:28:13;;;;;;;9.87;3.90;;;;;8.00;100936.00;;;;10491683;28;20289;-77
2023/03/29 04:33:23;;;;;;;5.97;3.63;;;;;8.10;100932.00;;;;10508931;28;20193;-78
2023/03/29 04:38:36;;;;;;;6.10;3.40;;;;;8.20;100932.00;;;;10515660;27;20276;-77
2023/03/29 04:43:40;;;;;;;8.00;3.37;;;;;8.20;100932.00;;;;10540104;27;20288;-78
2023/03/29 04:48:54;;;;;;;8.57;3.57;;;;;8.40;100934.00;;;;10534694;28;20271;-77
2023/03/29 04:54:06;;;;;;;6.30;3.40;;;;;8.50;100943.00;;;;10529357;28;20234;-77
2023/03/29 04:59:31;;;;;;;6.37;3.10;;;;;8.50;100935.00;;;;10530480;28;20246;-77
2023/03/29 05:04:35;;;;;;;7.53;3.53;;;;;8.60;100942.00;;;;10496165;28;20205;-77
2023/03/29 05:09:44;;;;;;;11.77;4.47;;;;;8.70;100951.00;;;;10507927;28;20250;-77
2023/03/29 05:14:47;;;;;;;8.20;4.80;;;;;8.80;100946.00;;;;10537812;27;20743;-77
2023/03/29 05:19:50;;;;;;;9.03;4.33;;;;;8.80;100944.00;;;;10501697;28;20212;-77
2023/03/29 05:24:53;;;;;;;9.13;4.70;;;;;8.80;100942.00;;;;10456151;28;20219;-77
2023/03/29 05:29:56;;;;;;;6.20;3.60;;;;;8.80;100943.00;;;;10491046;28;20204;-77
2023/03/29 05:35:04;;;;;;;12.17;5.20;;;;;8.90;100943.00;;;;10504176;28;20188;-77
2023/03/29 05:40:08;;;;;;;8.47;4.33;;;;;8.90;100939.00;;;;10490982;28;20243;-77
2023/03/29 05:45:28;;;;;;;9.23;4.40;;;;;9.00;100935.00;;;;10511543;28;20205;-77
2023/03/29 05:50:31;;;;;;;8.50;4.50;;;;;9.00;100927.00;;;;10496221;28;20196;-77
2023/03/29 05:55:34;;;;;;;8.60;5.00;;;;;9.10;100931.00;;;;10531230;28;20218;-78
2023/03/29 06:00:37;;;;;;;8.13;4.90;;;;;9.00;100928.00;;;;10546840;28;20193;-78
2023/03/29 06:05:59;;;;;;;11.23;4.57;;;;;9.00;100935.00;;;;10529782;28;20298;-77
2023/03/29 06:11:04;;;;;;;8.03;4.57;;;;;9.10;100934.00;;;;10513866;28;20643;-77
2023/03/29 06:16:43;;;;;;;8.30;4.80;;;;;9.30;100942.00;;;;10489034;28;20258;-77
2023/03/29 06:21:47;;;;;;;10.60;4.60;;;;;9.20;100942.00;;;;10536176;27;20592;-77
2023/03/29 06:26:56;;;;;;;10.43;4.60;;;;;9.30;100941.00;;;;10518399;28;20238;-76
2023/03/29 06:31:59;;;;;;;10.87;5.23;;;;;9.30;100938.00;;;;10513817;28;20225;-76
2023/03/29 06:37:22;;;;;;;7.53;4.40;;;;;9.40;100944.00;;;;10517097;28;20383;-77
2023/03/29 06:42:32;;;;;;;9.37;4.23;;;;;9.60;100933.00;;;;10509217;27;20219;-77
2023/03/29 06:47:54;;;;;;;8.50;4.73;;;;;9.90;100945.00;;;;10512188;28;20192;-78
2023/03/29 06:52:58;;;;;;;7.53;3.97;;;;;10.20;100939.00;;;;10522793;28;20685;-77
2023/03/29 06:58:00;;;;;;;7.83;5.10;;;;;10.40;100942.00;;;;10512833;28;20236;-77
2023/03/29 07:03:06;;;;;;;7.80;4.30;;;;;10.70;100954.00;;;;10480763;28;20204;-77
2023/03/29 07:08:14;;;;;;;10.60;4.07;;;;;10.70;100966.00;;;;10494735;28;20821;-77
2023/03/29 07:13:47;;;;;;;8.87;4.20;;;;;10.60;100972.00;;;;10514455;28;20266;-77
2023/03/29 07:18:53;;;;;;;8.43;3.83;;;;;10.40;100967.00;;;;10519981;28;20221;-77
2023/03/29 07:24:13;;;;;;;8.80;4.13;;;;;10.70;100956.00;;;;10535380;28;20204;-77
2023/03/29 07:29:16;;;;;;;9.10;4.10;;;;;11.30;100957.00;;;;10503084;28;20894;-78
2023/03/29 07:34:19;;;;;;;8.70;3.93;;;;;11.70;100963.00;;;;10514535;28;20688;-77
2023/03/29 07:39:21;;;;;;;5.13;3.60;;;;;11.60;100965.00;;;;10536011;28;20222;-77
2023/03/29 07:44:43;;;;;;;8.30;3.73;;;;;11.60;100971.00;;;;10527173;27;20728;-78
2023/03/29 07:49:46;;;;;;;7.03;3.47;;;;;11.40;100972.00;;;;10510010;28;20189;-78
2023/03/29 07:54:48;;;;;;;6.93;3.90;;;;;11.40;100962.00;;;;10517457;27;20234;-78
2023/03/29 07:59:59;;;;;;;10.20;3.97;;;;;11.60;100970.00;;;;10515646;27;20224;-78
2023/03/29 08:05:14;;;;;;;5.90;3.80;;;;;11.40;100967.00;;;;10547035;28;20216;-78
2023/03/29 08:10:35;;;;;;;6.17;4.10;;;;;11.80;100977.00;;;;10539382;27;20279;-78
2023/03/29 08:15:47;;;;;;;6.10;3.30;;;;;11.70;100981.00;;;;10501866;27;20215;-78
2023/03/29 08:21:05;;;;;;;9.63;4.27;;;;;11.70;100961.00;;;;10495575;28;20713;-78
2023/03/29 08:26:08;;;;;;;4.83;3.37;;;;;11.80;100963.00;;;;10558422;27;20204;-78
2023/03/29 08:31:11;;;;;;;10.53;3.87;;;;;11.60;100960.00;;;;10500089;28;20214;-78
2023/03/29 08:36:17;;;;;;;5.30;3.40;;;;;11.60;100959.00;;;;10492969;28;20285;-78
2023/03/29 08:41:32;;;;;;;7.00;3.80;;;;;12.10;100964.00;;;;10531370;27;20219;-78
2023/03/29 08:47:03;;;;;;;9.33;4.67;;;;;12.40;100958.00;;;;10506416;28;20688;-78
2023/03/29 08:52:21;;;;;;;5.93;3.97;;;;;13.00;100941.00;;;;10496547;28;20291;-78
2023/03/29 08:57:33;;;;;;;7.33;3.90;;;;;13.50;100945.00;;;;10508056;27;20302;-79
2023/03/29 09:02:42;;;;;;;7.17;3.90;;;;;13.50;100936.00;;;;10498332;27;20222;-78
2023/03/29 09:07:44;;;;;;;6.17;3.47;;;;;13.70;100935.00;;;;10497025;27;20264;-78
2023/03/29 09:13:07;;;;;;;10.07;4.47;;;;;13.90;100927.00;;;;10485393;27;20207;-78
2023/03/29 09:18:29;;;;;;;8.63;3.80;;;;;14.60;100924.00;;;;10499142;27;20222;-79
2023/03/29 09:24:09;;;;;;;5.80;3.90;;;;;14.60;100942.00;;;;10457572;28;20204;-78
2023/03/29 09:29:59;;;;;;;6.57;4.10;;;;;14.50;100941.00;;;;10537371;27;20204;-79
2023/03/29 09:35:37;;;;;;;7.32;4.10;;;;;15.10;100936.00;;;;10521782;27;20199;-78
2023/03/29 09:40:51;;;;;;;8.05;3.97;;;;;15.30;100930.00;;;;10534487;27;20204;-79
2023/03/29 09:45:59;;;;;;;10.25;3.95;;;;;15.50;100935.00;;;;10516297;27;20783;-78
2023/03/29 09:51:06;;;;;;;6.22;3.75;;;;;16.10;100928.00;;;;10511169;27;20559;-79
2023/03/29 09:56:14;;;;;;;6.53;3.85;;;;;16.80;100920.00;;;;10544162;27;20430;-79
2023/03/29 10:01:24;;;;;;;8.60;3.90;;;;;17.40;100898.00;;;;10504644;27;20247;-79
2023/03/29 10:06:27;;;;;;;7.60;3.80;;;;;17.90;100896.00;;;;10500456;27;20218;-78
2023/03/29 10:11:37;;;;;;;9.63;4.07;;;;;18.20;100895.00;;;;10543376;27;20205;-79
2023/03/29 10:16:41;;;;;;;8.07;4.03;;;;;17.70;100900.00;;;;10511017;27;20545;-79
2023/03/29 10:21:43;;;;;;;5.85;3.45;;;;;17.30;100884.00;;;;10482966;27;20200;-79
2023/03/29 10:26:46;;;;;;;6.95;3.60;;;;;18.20;100888.00;;;;10510749;27;21435;-79
2023/03/29 10:31:49;;;;;;;3.83;3.22;;;;;18.70;100876.00;;;;10528019;27;20744;-78
2023/03/29 10:36:59;;;;;;;3.22;2.80;;;;;18.70;100867.00;;;;10515263;27;20706;-78
2023/03/29 10:42:03;;;;;;;3.13;2.67;;;;;19.00;100867.00;;;;10517762;27;20228;-79
2023/03/29 10:47:15;;;;;;;5.72;3.42;;;;;18.80;100868.00;;;;10531189;27;20208;-78
2023/03/29 10:52:17;;;;;;;5.53;3.35;;;;;18.50;100873.00;;;;10521048;27;20207;-78
2023/03/29 10:57:46;;;;;;;5.07;2.72;;;;;18.90;100863.00;;;;10503104;27;20893;-79
2023/03/29 11:03:10;;;;;;;4.72;2.92;;;;;19.10;100857.00;;;;10512852;27;20224;-79
2023/03/29 11:08:42;;;;;;;3.47;2.92;;;;;19.20;100834.00;;;;10513065;27;20200;-77
2023/03/29 11:14:05;;;;;;;5.50;2.05;;;;;19.40;100827.00;;;;10506299;27;20196;-78
2023/03/29 11:19:10;;;;;;;4.05;2.80;;;;;19.30;100844.00;;;;10534103;27;20286;-79
2023/03/29 11:24:45;;;;;;;2.05;1.80;;;;;19.40;100839.00;;;;10530106;27;20211;-79
2023/03/29 11:29:55;;;;;;;2.80;2.20;;;;;19.20;100848.00;;;;10518947;27;20200;-79
2023/03/29 11:35:07;;;;;;;5.38;2.90;;;;;19.60;100834.00;;;;10523980;27;20203;-79
2023/03/29 11:40:41;;;;;;;4.50;2.60;;;;;20.10;100858.00;;;;10501871;27;20297;-79
2023/03/29 11:46:02;;;;;;;8.15;3.25;;;;;19.90;100852.00;;;;10520734;27;20231;-79
2023/03/29 11:51:22;;;;;;;5.07;2.53;;;;;19.80;100853.00;;;;10513479;28;20188;-79
2023/03/29 11:56:43;;;;;;;3.03;2.35;;;;;20.50;100823.00;;;;10530885;27;20216;-78
2023/03/29 12:01:58;;;;;;;3.80;2.20;;;;;21.10;100819.00;;;;10481276;27;20204;-79
2023/03/29 12:07:22;;;;;;;2.53;2.20;;;;;20.70;100813.00;;;;10497259;28;20269;-78
2023/03/29 12:12:40;;;;;;;5.00;2.17;;;;;20.50;100804.00;;;;10506435;27;20228;-78
2023/03/29 12:18:00;;;;;;;3.78;1.90;;;;;20.40;100804.00;;;;10511680;27;20222;-78
2023/03/29 12:23:04;;;;;;;2.45;2.08;;;;;20.70;100802.00;;;;10509058;28;20199;-81
2023/03/29 12:28:23;;;;;;;3.25;1.80;;;;;21.00;100791.00;;;;10519911;28;20200;-81
2023/03/29 12:33:34;;;;;;;3.08;2.10;;;;;21.20;100784.00;;;;10545778;28;20238;-81
2023/03/29 12:38:54;;;;;;;2.72;2.30;;;;;21.20;100788.00;;;;10534745;28;20261;-81
2023/03/29 12:44:19;;;;;;;5.72;2.50;;;;;21.30;100773.00;;;;10552619;27;20202;-81
2023/03/29 12:49:37;;;;;;;2.42;1.95;;;;;21.00;100764.00;;;;10521734;28;20400;-81
2023/03/29 12:54:39;;;;;;;4.85;1.90;;;;;20.50;100758.00;;;;10560856;27;20195;-81
2023/03/29 12:59:49;;;;;;;3.95;2.10;;;;;20.20;100760.00;;;;10522293;28;20243;-81
2023/03/29 13:04:56;;;;;;;4.43;2.50;;;;;20.00;100749.00;;;;10515890;28;20240;-80
2023/03/29 13:10:07;;;;;;;4.03;2.70;;;;;20.30;100748.00;;;;10533064;27;20268;-81
2023/03/29 13:15:18;;;;;;;6.10;2.47;;;;;20.80;100726.00;;;;10520116;27;20249;-81
2023/03/29 13:20:29;;;;;;;4.68;2.60;;;;;20.70;100711.00;;;;10551634;28;20208;-81
2023/03/29 13:25:50;;;;;;;6.43;2.25;;;;;20.50;100717.00;;;;10521861;28;20585;-80
2023/03/29 13:31:06;;;;;;;4.75;2.67;;;;;20.00;100709.00;;;;10516692;28;20253;-81
2023/03/29 13:36:31;;;;;;;2.58;1.90;;;;;20.00;100700.00;;;;10522133;28;20199;-81
2023/03/29 13:41:37;;;;;;;3.80;1.80;;;;;20.30;100675.00;;;;10522371;28;20258;-81
2023/03/29 13:46:40;;;;;;;4.57;2.03;;;;;21.10;100676.00;;;;10521340;28;20236;-81
2023/03/29 13:51:52;;;;;;;3.80;1.98;;;;;21.80;100677.00;;;;10559878;27;20200;-82
2023/03/29 13:57:02;;;;;;;1.30;1.20;;;;;22.00;100667.00;;;;10532636;27;20223;-80
2023/03/29 14:02:06;;;;;;;3.35;1.85;;;;;22.10;100671.00;;;;10545388;28;20200;-82
2023/03/29 14:07:12;;;;;;;2.92;1.80;;;;;22.80;100666.00;;;;10551312;28;20227;-82
2023/03/29 14:12:16;;;;;;;3.05;1.70;;;;;22.80;100660.00;;;;10571305;28;20211;-82
2023/03/29 14:17:21;;;;;;;4.22;2.22;;;;;22.20;100656.00;;;;10515563;28;20678;-81
2023/03/29 14:22:28;;;;;;;3.03;2.05;;;;;21.80;100644.00;;;;10589219;28;20213;-82
2023/03/29 14:27:30;;;;;;;8.10;2.10;;;;;21.20;100626.00;;;;10526003;28;20252;-79
2023/03/29 14:32:35;;;;;;;3.70;2.25;;;;;21.20;100630.00;;;;10553936;27;20203;-79
2023/03/29 14:37:40;;;;;;;3.13;2.33;;;;;20.80;100623.00;;;;10523596;27;20223;-78
2023/03/29 14:42:42;;;;;;;3.88;2.28;;;;;20.80;100606.00;;;;10517764;28;21008;-78
2023/03/29 14:47:46;;;;;;;4.75;2.42;;;;;20.50;100608.00;;;;10532342;28;20200;-79
2023/03/29 14:52:49;;;;;;;4.75;1.85;;;;;20.30;100614.00;;;;10575476;27;20200;-79
2023/03/29 14:57:54;;;;;;;3.33;2.20;;;;;19.80;100607.00;;;;10549904;27;20223;-79
2023/03/29 15:03:01;;;;;;;4.45;2.08;;;;;19.60;100609.00;;;;10527819;27;20193;-79
2023/03/29 15:08:10;;;;;;;2.20;1.80;;;;;19.30;100600.00;;;;10540205;27;20215;-79
2023/03/29 15:13:23;;;;;;;5.15;2.58;;;;;19.40;100588.00;;;;10530697;27;20192;-78
2023/03/29 15:18:31;;;;;;;5.40;2.35;;;;;19.50;100578.00;;;;10535381;27;20203;-79
2023/03/29 15:23:53;;;;;;;4.68;2.20;;;;;19.50;100571.00;;;;10503877;27;20203;-79
2023/03/29 15:29:12;;;;;;;4.82;2.00;;;;;20.10;100562.00;;;;10536439;27;20207;-79
2023/03/29 15:34:25;;;;;;;6.18;2.38;;;;;20.50;100558.00;;;;10534022;27;20232;-79
2023/03/29 15:39:28;;;;;;;7.28;1.88;;;;;20.80;100546.00;;;;10523561;27;20219;-78
2023/03/29 15:44:36;;;;;;;4.05;1.85;;;;;20.50;100542.00;;;;10547209;27;20553;-78
2023/03/29 15:49:39;;;;;;;4.07;2.00;;;;;20.20;100533.00;;;;10551037;27;20287;-79
2023/03/29 15:54:42;;;;;;;4.00;1.80;;;;;20.00;100530.00;;;;10519064;27;20740;-79
2023/03/29 15:59:45;;;;;;;5.95;2.47;;;;;19.60;100510.00;;;;10506015;27;20247;-79
2023/03/29 16:04:47;;;;;;;4.05;2.30;;;;;19.40;100513.00;;;;10546415;27;20198;-79
2023/03/29 16:09:49;;;;;;;3.35;2.03;;;;;19.00;100507.00;;;;10525213;27;20192;-79
2023/03/29 16:14:51;;;;;;;9.10;1.88;;;;;18.70;100493.00;;;;10500667;27;20196;-78
2023/03/29 16:19:54;;;;;;;8.20;2.25;;;;;18.50;100488.00;;;;10515151;27;20240;-79
2023/03/29 16:24:56;;;;;;;4.57;1.70;;;;;18.40;100491.00;;;;10501810;27;20231;-79
2023/03/29 16:29:58;;;;;;;7.20;2.33;;;;;18.30;100491.00;;;;10491700;27;20232;-79
2023/03/29 16:35:00;;;;;;;5.45;2.30;;;;;18.20;100484.00;;;;10485707;27;20292;-79
2023/03/29 16:40:06;;;;;;;5.30;2.42;;;;;17.90;100491.00;;;;10521383;27;20228;-79
2023/03/29 16:45:18;;;;;;;5.53;2.45;;;;;17.80;100490.00;;;;10516316;27;20253;-79
2023/03/29 16:50:21;;;;;;;4.40;2.58;;;;;17.50;100481.00;;;;10501120;27;20215;-78
2023/03/29 16:55:24;;;;;;;6.30;2.83;;;;;17.40;100472.00;;;;10537301;27;20207;-79
2023/03/29 17:00:26;;;;;;;3.50;2.40;;;;;17.30;100475.00;;;;10522387;27;20222;-78
2023/03/29 17:05:28;;;;;;;4.18;2.35;;;;;17.20;100476.00;;;;10531457;27;20208;-78
2023/03/29 17:10:31;;;;;;;8.52;2.83;;;;;17.00;100474.00;;;;10502197;27;20265;-81
2023/03/29 17:15:34;;;;;;;8.20;2.83;;;;;16.90;100464.00;;;;10510853;27;20219;-81
2023/03/29 17:20:40;;;;;;;9.38;3.33;;;;;16.70;100460.00;;;;10529045;28;20240;-81
2023/03/29 17:25:42;;;;;;;8.38;3.00;;;;;16.60;100454.00;;;;10529668;27;20208;-81
2023/03/29 17:30:45;;;;;;;7.03;3.60;;;;;16.40;100452.00;;;;10508047;27;20204;-82
2023/03/29 17:35:47;;;;;;;6.40;2.92;;;;;16.30;100460.00;;;;10525173;27;20211;-81
2023/03/29 17:40:53;;;;;;;6.28;2.40;;;;;16.20;100460.00;;;;10488098;28;20633;-81
2023/03/29 17:45:55;;;;;;;6.05;2.63;;;;;16.00;100455.00;;;;10547544;28;20204;-82
2023/03/29 17:50:57;;;;;;;7.20;2.97;;;;;16.00;100458.00;;;;10519452;27;20214;-81
2023/03/29 17:55:59;;;;;;;5.32;2.63;;;;;15.80;100457.00;;;;10468394;28;20336;-81
2023/03/29 18:01:09;;;;;;;5.38;2.58;;;;;15.80;100451.00;;;;10494141;28;20223;-83
2023/03/29 18:06:11;;;;;;;4.93;2.53;;;;;15.60;100440.00;;;;10498783;27;20284;-82
2023/03/29 18:11:20;;;;;;;10.43;3.00;;;;;15.50;100429.00;;;;10525765;28;20206;-82
2023/03/29 18:16:22;;;;;;;4.78;2.50;;;;;15.40;100432.00;;;;10531534;28;20244;-82
2023/03/29 18:21:25;;;;;;;8.43;2.95;;;;;15.30;100419.00;;;;10534750;28;20212;-82
2023/03/29 18:26:28;;;;;;;9.20;3.10;;;;;15.20;100426.00;;;;10543544;28;20826;-82
2023/03/29 18:31:30;;;;;;;6.85;3.30;;;;;15.20;100423.00;;;;10511325;27;20573;-83
2023/03/29 18:36:33;;;;;;;9.23;3.20;;;;;15.30;100425.00;;;;10504820;28;20574;-82
2023/03/29 18:41:36;;;;;;;6.20;2.88;;;;;15.20;100423.00;;;;10538800;27;20220;-82
2023/03/29 18:46:38;;;;;;;6.97;3.05;;;;;15.20;100415.00;;;;10520688;28;20265;-82
2023/03/29 18:51:41;;;;;;;7.20;3.13;;;;;15.20;100386.00;;;;10551202;28;20200;-82
2023/03/29 18:56:43;;;;;;;4.90;3.25;;;;;15.10;100392.00;;;;10505297;28;20469;-82
2023/03/29 19:01:45;;;;;;;6.93;2.90;;;;;15.10;100396.00;;;;10533809;28;20681;-82
2023/03/29 19:06:48;;;;;;;8.75;3.83;;;;;15.00;100382.00;;;;10513393;28;20196;-82
2023/03/29 19:11:50;;;;;;;8.60;3.58;;;;;14.90;100387.00;;;;10477495;27;20542;-83
2023/03/29 19:16:53;;;;;;;6.05;3.28;;;;;14.80;100376.00;;;;10519527;28;20221;-83
2023/03/29 19:21:55;;;;;;;10.88;3.78;;;;;14.70;100375.00;;;;10501299;28;20228;-81
2023/03/29 19:27:03;;;;;;;10.88;4.63;;;;;14.70;100381.00;;;;10504520;28;20205;-81
2023/03/29 19:32:05;;;;;;;10.43;4.53;;;;;14.60;100368.00;;;;10479841;27;20197;-81
2023/03/29 19:37:07;;;;;;;11.02;4.40;;;;;14.50;100354.00;;;;10531537;27;20195;-82
2023/03/29 19:42:10;;;;;;;10.27;4.17;;;;;14.50;100355.00;;;;10487312;27;20200;-80
2023/03/29 19:47:12;;;;;;;9.47;4.13;;;;;14.50;100345.00;;;;10529856;27;20203;-81
2023/03/29 19:52:14;;;;;;;12.10;4.88;;;;;14.50;100325.00;;;;10537970;27;20207;-81
2023/03/29 19:57:16;;;;;;;10.27;4.15;;;;;14.40;100309.00;;;;10524915;27;20196;-81
2023/03/29 20:02:18;;;;;;;8.68;4.68;;;;;14.40;100318.00;;;;10504089;27;20212;-81
2023/03/29 20:07:20;;;;;;;6.63;3.73;;;;;14.40;100289.00;;;;10517590;27;20197;-80
2023/03/29 20:12:22;;;;;;;9.07;3.83;;;;;14.50;100290.00;;;;10481160;27;20196;-80
2023/03/29 20:17:25;;;;;;;7.20;3.90;;;;;14.50;100287.00;;;;10489626;27;20257;-80
2023/03/29 20:22:29;;;;;;;7.45;3.50;;;;;14.60;100264.00;;;;10509190;27;20200;-80
2023/03/29 20:27:32;;;;;;;8.93;4.22;;;;;14.60;100271.00;;;;10488509;28;21039;-81
2023/03/29 20:32:35;;;;;;;7.10;3.90;;;;;14.50;100259.00;;;;10499614;28;20268;-81
2023/03/29 20:37:37;;;;;;;8.25;3.70;;;;;14.50;100259.00;;;;10520026;28;20708;-81
2023/03/29 20:42:39;;;;;;;8.17;3.40;;;;;14.50;100247.00;;;;10490095;27;20216;-81
2023/03/29 20:47:48;;;;;;;4.80;2.92;;;;;14.50;100252.00;;;;10510443;28;20200;-81
2023/03/29 20:52:53;;;;;;;8.27;2.90;;;;;14.50;100243.00;;;;10506106;28;20196;-81
2023/03/29 20:57:58;;;;;;;5.30;2.50;;;;;14.50;100246.00;;;;10503650;28;20431;-81
2023/03/29 21:03:02;;;;;;;5.67;2.30;;;;;14.40;100236.00;;;;10537220;27;20234;-82
2023/03/29 21:08:04;;;;;;;8.13;1.98;;;;;14.50;100240.00;;;;10470122;28;20209;-81
2023/03/29 21:13:07;;;;;;;6.77;2.30;;;;;14.40;100229.00;;;;10499271;27;20204;-81
2023/03/29 21:18:09;;;;;;;3.55;1.98;;;;;14.40;100216.00;;;;10521370;28;20231;-82
2023/03/29 21:23:12;;;;;;;6.43;2.33;;;;;14.50;100215.00;;;;10489467;28;20211;-82
2023/03/29 21:28:14;;;;;;;4.43;1.93;;;;;14.50;100214.00;;;;10491343;28;20238;-82
2023/03/29 21:33:16;;;;;;;7.17;2.10;;;;;14.50;100205.00;;;;10518071;28;20212;-82
2023/03/29 21:38:22;;;;;;;5.17;1.70;;;;;14.60;100204.00;;;;10483445;28;20286;-82
2023/03/29 21:43:26;;;;;;;4.43;1.67;;;;;14.60;100210.00;;;;10485035;28;20204;-82
2023/03/29 21:48:35;;;;;;;2.97;1.90;;;;;14.70;100215.00;;;;10538732;27;20298;-82
2023/03/29 21:53:38;;;;;;;3.90;1.30;;;;;14.70;100205.00;;;;10541617;27;20220;-82
2023/03/29 21:58:40;;;;;;;4.37;1.90;;;;;14.90;100205.00;;;;10514537;27;20258;-83
2023/03/29 22:03:43;;;;;;;3.53;1.47;;;;;14.90;100189.00;;;;10562330;27;20206;-82
2023/03/29 22:08:45;;;;;;;3.80;1.73;;;;;14.90;100190.00;;;;10526024;27;20231;-82
2023/03/29 22:13:50;;;;;;;4.60;1.90;;;;;14.90;100187.00;;;;10517288;27;20269;-82
2023/03/29 22:18:53;;;;;;;4.67;1.70;;;;;14.80;100186.00;;;;10544037;27;20215;-82
2023/03/29 22:23:56;;;;;;;2.97;1.30;;;;;14.70;100173.00;;;;10536674;27;20202;-82
2023/03/29 22:28:59;;;;;;;4.20;1.40;;;;;14.70;100194.00;;;;10553876;27;20201;-83
2023/03/29 22:34:02;;;;;;;4.57;1.83;;;;;14.80;100177.00;;;;10513110;27;20209;-82
2023/03/29 22:39:05;;;;;;;5.40;2.00;;;;;14.80;100170.00;;;;10538675;27;20619;-82
2023/03/29 22:44:07;;;;;;;8.27;1.90;;;;;14.80;100163.00;;;;10536001;27;20283;-82
2023/03/29 22:49:10;;;;;;;4.67;1.60;;;;;15.00;100161.00;;;;10537550;27;20200;-82
2023/03/29 22:54:12;;;;;;;3.70;1.50;;;;;15.30;100158.00;;;;10535124;27;20199;-83
2023/03/29 22:59:14;;;;;;;3.00;1.45;;;;;15.50;100134.00;;;;10533443;27;20576;-82
2023/03/29 23:04:17;;;;;;;5.90;1.65;;;;;15.60;100136.00;;;;10536115;27;20210;-83
2023/03/29 23:09:19;;;;;;;3.28;1.50;;;;;15.70;100137.00;;;;10536332;27;20222;-82
2023/03/29 23:14:21;;;;;;;6.40;2.08;;;;;15.70;100123.00;;;;10531724;27;20192;-82
2023/03/29 23:19:23;;;;;;;4.00;1.95;;;;;15.70;100118.00;;;;10542740;27;20247;-80
2023/03/29 23:24:25;;;;;;;8.02;1.90;;;;;15.90;100125.00;;;;10528609;27;20283;-81
2023/03/29 23:29:27;;;;;;;5.72;1.85;;;;;16.00;100135.00;;;;10540245;27;20287;-81
2023/03/29 23:34:29;;;;;;;4.72;2.25;;;;;16.00;100125.00;;;;10523666;27;20204;-81
2023/03/29 23:39:32;;;;;;;6.10;1.98;;;;;16.00;100125.00;;;;10497450;27;20219;-80
2023/03/29 23:44:34;;;;;;;2.90;1.65;;;;;16.00;100113.00;;;;10526780;27;20199;-80
2023/03/29 23:49:37;;;;;;;6.63;2.40;;;;;15.90;100113.00;;;;10526605;27;20202;-81
2023/03/29 23:54:39;;;;;;;5.45;1.60;;;;;15.80;100131.00;;;;10523252;28;20878;-81
2023/03/29 23:59:41;;;;;;;5.85;2.15;;;;;15.80;100116.00;;;;10554480;27;20214;-81
